createdAt,value
2023-01-30T00:00:31.633Z,20.90
2023-01-30T00:03:04.791Z,17.65
2023-01-30T00:05:37.780Z,17.90
2023-01-30T00:08:10.779Z,16.73
2023-01-30T00:10:44.102Z,19.20
2023-01-30T00:13:18.504Z,17.83
2023-01-30T00:15:51.483Z,17.35
2023-01-30T00:18:24.454Z,20.15
2023-01-30T00:20:57.920Z,21.07
2023-01-30T00:23:32.523Z,18.75
2023-01-30T00:26:08.403Z,17.63
2023-01-30T00:28:42.810Z,18.95
2023-01-30T00:31:15.824Z,17.67
2023-01-30T00:33:48.892Z,14.43
2023-01-30T00:36:21.851Z,15.50
2023-01-30T00:38:57.472Z,16.10
2023-01-30T00:41:50.405Z,17.60
2023-01-30T00:44:42.348Z,18.67
2023-01-30T00:47:15.472Z,15.88
2023-01-30T00:49:48.444Z,16.37
2023-01-30T00:52:22.778Z,15.85
2023-01-30T00:54:57.455Z,15.68
2023-01-30T00:57:30.403Z,16.27
2023-01-30T01:00:06.321Z,16.52
2023-01-30T01:02:39.326Z,20.52
2023-01-30T01:05:12.336Z,18.47
2023-01-30T01:07:45.347Z,24.23
2023-01-30T01:10:18.753Z,20.53
2023-01-30T01:12:53.383Z,24.25
2023-01-30T01:15:27.952Z,21.77
2023-01-30T01:18:01.100Z,21.85
2023-01-30T01:20:34.280Z,21.90
2023-01-30T01:23:11.965Z,20.98
2023-01-30T01:25:45.111Z,21.00
2023-01-30T01:28:21.756Z,18.23
2023-01-30T01:30:56.127Z,21.63
2023-01-30T01:33:29.667Z,22.77
2023-01-30T01:36:04.840Z,24.83
2023-01-30T01:38:38.972Z,22.08
2023-01-30T01:41:12.942Z,24.75
2023-01-30T01:44:04.392Z,22.98
2023-01-30T01:46:44.949Z,25.25
2023-01-30T01:49:23.779Z,21.58
2023-01-30T01:52:00.576Z,20.17
2023-01-30T01:54:40.431Z,23.50
2023-01-30T01:57:19.335Z,22.90
2023-01-30T01:59:56.214Z,22.10
2023-01-30T02:02:30.621Z,25.70
2023-01-30T02:05:06.555Z,22.30
2023-01-30T02:07:44.731Z,23.05
2023-01-30T02:10:21.909Z,23.88
2023-01-30T02:12:54.866Z,27.00
2023-01-30T02:15:28.119Z,27.33
2023-01-30T02:18:03.160Z,27.70
2023-01-30T02:20:56.967Z,26.08
2023-01-30T02:24:05.611Z,24.88
2023-01-30T02:27:04.035Z,26.30
2023-01-30T02:30:06.343Z,27.17
2023-01-30T02:32:51.664Z,27.42
2023-01-30T02:35:32.872Z,27.77
2023-01-30T02:38:20.388Z,24.35
2023-01-30T02:41:02.898Z,26.10
2023-01-30T02:43:45.653Z,26.38
2023-01-30T02:46:23.283Z,22.85
2023-01-30T02:49:01.960Z,25.75
2023-01-30T02:51:37.993Z,23.45
2023-01-30T02:54:12.820Z,24.25
2023-01-30T02:56:48.102Z,23.63
2023-01-30T02:59:24.336Z,31.25
2023-01-30T03:02:17.173Z,30.45
2023-01-30T03:05:11.939Z,24.58
2023-01-30T03:07:50.329Z,30.05
2023-01-30T03:10:35.019Z,31.77
2023-01-30T03:13:20.053Z,27.63
2023-01-30T03:15:56.878Z,25.55
2023-01-30T03:18:30.516Z,23.65
2023-01-30T03:21:07.985Z,27.10
2023-01-30T03:23:40.987Z,26.52
2023-01-30T03:26:18.898Z,25.83
2023-01-30T03:28:53.988Z,21.67
2023-01-30T03:31:27.066Z,23.83
2023-01-30T03:34:01.281Z,21.65
2023-01-30T03:36:36.612Z,24.48
2023-01-30T03:39:09.668Z,22.35
2023-01-30T03:41:42.934Z,27.47
2023-01-30T03:44:15.922Z,21.58
2023-01-30T03:46:49.329Z,23.75
2023-01-30T03:49:22.336Z,22.17
2023-01-30T03:51:56.761Z,21.77
2023-01-30T03:54:29.780Z,20.20
2023-01-30T03:57:02.711Z,18.77
2023-01-30T03:59:35.845Z,22.00
2023-01-30T04:02:14.906Z,20.05
2023-01-30T04:04:49.344Z,20.70
2023-01-30T04:07:23.850Z,22.63
2023-01-30T04:09:58.227Z,19.48
2023-01-30T04:12:31.651Z,21.23
2023-01-30T04:15:07.204Z,18.38
2023-01-30T04:17:57.819Z,18.55
2023-01-30T04:20:42.719Z,18.50
2023-01-30T04:23:17.227Z,15.52
2023-01-30T04:25:50.412Z,16.70
2023-01-30T04:28:26.000Z,16.25
2023-01-30T04:33:51.410Z,16.98
2023-01-30T04:36:24.900Z,16.48
2023-01-30T04:38:59.361Z,18.00
2023-01-30T04:41:35.298Z,16.85
2023-01-30T04:44:09.070Z,16.65
2023-01-30T04:47:00.575Z,20.50
2023-01-30T04:49:33.954Z,18.42
2023-01-30T04:52:08.823Z,17.85
2023-01-30T04:57:16.935Z,19.80
2023-01-30T04:59:50.045Z,18.45
2023-01-30T05:02:24.487Z,17.88
2023-01-30T05:04:57.442Z,16.52
2023-01-30T05:07:30.386Z,21.90
2023-01-30T05:10:05.401Z,15.52
2023-01-30T05:12:38.393Z,16.20
2023-01-30T05:15:12.548Z,20.55
2023-01-30T05:17:45.566Z,19.08
2023-01-30T05:20:18.908Z,20.13
2023-01-30T05:22:51.954Z,15.65
2023-01-30T05:25:26.495Z,16.83
2023-01-30T05:28:00.115Z,17.30
2023-01-30T05:30:33.137Z,15.38
2023-01-30T05:33:06.109Z,20.40
2023-01-30T05:35:39.204Z,14.87
2023-01-30T05:38:12.183Z,16.60
2023-01-30T05:40:46.582Z,21.40
2023-01-30T05:43:19.554Z,19.33
2023-01-30T05:45:54.372Z,18.15
2023-01-30T05:48:28.689Z,18.23
2023-01-30T05:51:01.953Z,19.08
2023-01-30T05:53:35.656Z,18.20
2023-01-30T05:56:10.688Z,18.98
2023-01-30T05:58:43.908Z,21.58
2023-01-30T06:01:17.217Z,16.52
2023-01-30T06:03:53.058Z,17.73
2023-01-30T06:06:26.586Z,18.77
2023-01-30T06:08:59.615Z,17.02
2023-01-30T06:11:38.543Z,18.03
2023-01-30T06:14:11.515Z,20.20
2023-01-30T06:16:44.518Z,15.57
2023-01-30T06:19:17.506Z,17.83
2023-01-30T06:21:50.548Z,21.30
2023-01-30T06:24:23.888Z,16.80
2023-01-30T06:26:59.918Z,16.65
2023-01-30T06:29:32.899Z,25.50
2023-01-30T06:32:06.463Z,17.33
2023-01-30T06:34:39.443Z,17.67
2023-01-30T06:37:12.448Z,15.97
2023-01-30T06:39:45.457Z,21.40
2023-01-30T06:42:21.841Z,17.40
2023-01-30T06:44:54.860Z,18.77
2023-01-30T06:47:27.771Z,20.63
2023-01-30T06:50:00.784Z,21.10
2023-01-30T06:52:33.756Z,18.70
2023-01-30T06:55:08.344Z,20.17
2023-01-30T06:57:42.999Z,20.08
2023-01-30T07:00:18.327Z,18.05
2023-01-30T07:02:51.341Z,20.83
2023-01-30T07:05:24.457Z,21.17
2023-01-30T07:07:57.549Z,20.20
2023-01-30T07:10:32.445Z,17.65
2023-01-30T07:13:06.876Z,21.67
2023-01-30T07:15:40.147Z,19.42
2023-01-30T07:18:13.217Z,22.10
2023-01-30T07:20:48.435Z,18.37
2023-01-30T07:23:21.482Z,21.38
2023-01-30T07:25:55.483Z,21.17
2023-01-30T07:31:03.217Z,22.08
2023-01-30T07:33:36.283Z,22.83
2023-01-30T07:36:10.168Z,21.30
2023-01-30T07:38:43.151Z,23.15
2023-01-30T07:41:16.239Z,21.50
2023-01-30T07:43:51.593Z,23.77
2023-01-30T07:46:24.604Z,21.55
2023-01-30T07:48:59.758Z,24.95
2023-01-30T07:51:33.401Z,24.67
2023-01-30T07:54:06.469Z,28.35
2023-01-30T07:56:39.696Z,25.40
2023-01-30T07:59:14.072Z,27.00
2023-01-30T08:01:47.026Z,22.65
2023-01-30T08:04:20.379Z,30.33
2023-01-30T08:06:56.361Z,26.83
2023-01-30T08:09:29.378Z,27.70
2023-01-30T08:12:02.350Z,23.23
2023-01-30T08:14:36.760Z,27.50
2023-01-30T08:17:09.728Z,30.10
2023-01-30T08:19:42.727Z,24.90
2023-01-30T08:22:16.349Z,28.55
2023-01-30T08:24:49.484Z,22.35
2023-01-30T08:27:22.719Z,25.75
2023-01-30T08:29:57.309Z,21.23
2023-01-30T08:32:30.252Z,28.17
2023-01-30T08:35:03.472Z,23.48
2023-01-30T08:37:36.392Z,24.27
2023-01-30T08:40:10.996Z,25.58
2023-01-30T08:42:45.311Z,23.77
2023-01-30T08:45:19.732Z,26.27
2023-01-30T08:47:52.723Z,30.10
2023-01-30T08:50:25.694Z,26.30
2023-01-30T08:52:58.693Z,32.78
2023-01-30T08:55:31.760Z,27.15
2023-01-30T08:58:04.749Z,29.13
2023-01-30T09:00:39.853Z,33.13
2023-01-30T09:03:14.342Z,30.15
2023-01-30T09:05:47.395Z,34.38
2023-01-30T09:08:20.386Z,30.00
2023-01-30T09:10:53.398Z,32.67
2023-01-30T09:13:26.533Z,33.33
2023-01-30T09:16:00.985Z,33.70
2023-01-30T09:18:34.018Z,38.42
2023-01-30T09:21:07.600Z,29.17
2023-01-30T09:23:40.606Z,33.60
2023-01-30T09:26:13.667Z,28.30
2023-01-30T09:28:46.675Z,27.47
2023-01-30T09:31:21.149Z,25.75
2023-01-30T09:33:54.173Z,31.52
2023-01-30T09:36:27.143Z,31.45
2023-01-30T09:39:00.224Z,25.50
2023-01-30T09:41:47.729Z,31.40
2023-01-30T09:44:59.175Z,22.98
2023-01-30T09:47:39.898Z,27.05
2023-01-30T09:50:31.798Z,21.33
2023-01-30T09:53:13.469Z,23.27
2023-01-30T09:55:47.559Z,22.33
2023-01-30T09:58:23.753Z,24.92
2023-01-30T10:01:06.411Z,26.85
2023-01-30T10:03:56.468Z,28.35
2023-01-30T10:06:30.152Z,26.92
2023-01-30T10:09:14.389Z,25.23
2023-01-30T10:14:42.678Z,22.65
2023-01-30T10:17:32.553Z,25.70
2023-01-30T10:20:31.666Z,19.15
2023-01-30T10:23:28.668Z,24.05
2023-01-30T10:26:08.368Z,21.40
2023-01-30T10:28:55.403Z,23.90
2023-01-30T10:31:36.045Z,23.27
2023-01-30T10:34:14.831Z,24.13
2023-01-30T10:36:53.911Z,22.30
2023-01-30T10:39:36.894Z,17.02
2023-01-30T10:42:14.539Z,21.63
2023-01-30T10:44:48.989Z,24.35
2023-01-30T10:47:46.241Z,18.20
2023-01-30T10:50:22.845Z,24.73
2023-01-30T10:53:06.778Z,25.02
2023-01-30T10:55:47.237Z,23.80
2023-01-30T10:58:26.618Z,21.80
2023-01-30T11:01:02.120Z,20.20
2023-01-30T11:03:41.562Z,20.92
2023-01-30T11:06:18.332Z,20.50
2023-01-30T11:08:53.256Z,23.15
2023-01-30T11:11:31.019Z,26.17
2023-01-30T11:14:06.274Z,21.83
2023-01-30T11:16:45.231Z,20.35
2023-01-30T11:19:22.389Z,25.15
2023-01-30T11:21:57.699Z,23.27
2023-01-30T11:24:39.514Z,21.95
2023-01-30T11:27:17.933Z,20.13
2023-01-30T11:29:52.476Z,23.02
2023-01-30T11:32:29.088Z,21.10
2023-01-30T11:35:22.290Z,19.85
2023-01-30T11:37:55.335Z,19.13
2023-01-30T11:40:31.648Z,19.73
2023-01-30T11:43:07.557Z,21.40
2023-01-30T11:45:42.952Z,17.30
2023-01-30T11:48:32.860Z,21.35
2023-01-30T11:51:08.537Z,19.15
2023-01-30T11:53:45.815Z,18.23
2023-01-30T11:56:24.252Z,16.10
2023-01-30T11:58:59.963Z,18.85
2023-01-30T12:01:34.972Z,19.00
2023-01-30T12:04:12.241Z,21.05
2023-01-30T12:06:45.267Z,17.88
2023-01-30T12:09:38.126Z,24.83
2023-01-30T12:12:30.423Z,21.50
2023-01-30T12:15:20.737Z,15.45
2023-01-30T12:18:01.356Z,22.35
2023-01-30T12:20:50.877Z,15.18
2023-01-30T12:23:34.949Z,15.25
2023-01-30T12:26:14.289Z,21.90
2023-01-30T12:28:56.175Z,19.13
2023-01-30T12:31:35.948Z,16.10
2023-01-30T12:34:10.532Z,19.33
2023-01-30T12:36:49.347Z,17.17
2023-01-30T12:39:37.324Z,20.30
2023-01-30T12:42:27.841Z,20.42
2023-01-30T12:45:16.102Z,21.55
2023-01-30T12:48:02.536Z,19.23
2023-01-30T12:50:47.684Z,18.45
2023-01-30T12:53:32.666Z,15.77
2023-01-30T12:56:34.591Z,14.77
2023-01-30T12:59:16.158Z,14.32
2023-01-30T13:02:02.440Z,16.05
2023-01-30T13:04:56.460Z,15.68
2023-01-30T13:07:43.533Z,17.17
2023-01-30T13:10:26.222Z,16.85
2023-01-30T13:13:11.505Z,17.05
2023-01-30T13:15:53.641Z,18.52
2023-01-30T13:18:33.609Z,14.68
2023-01-30T13:21:12.617Z,27.30
2023-01-30T13:23:56.505Z,19.50
2023-01-30T13:26:34.923Z,18.63
2023-01-30T13:29:15.852Z,17.20
2023-01-30T13:31:54.734Z,18.23
2023-01-30T13:34:33.762Z,15.63
2023-01-30T13:37:14.265Z,19.98
2023-01-30T13:39:53.869Z,18.40
2023-01-30T13:42:37.404Z,17.00
2023-01-30T13:45:21.078Z,20.90
2023-01-30T13:48:08.909Z,22.23
2023-01-30T13:50:59.787Z,18.75
2023-01-30T13:53:40.533Z,21.77
2023-01-30T13:56:40.159Z,29.35
2023-01-30T13:59:26.469Z,26.92
2023-01-30T14:02:20.260Z,26.65
2023-01-30T14:04:54.696Z,25.30
2023-01-30T14:07:32.104Z,23.95
2023-01-30T14:10:16.258Z,22.05
2023-01-30T14:15:31.778Z,20.00
2023-01-30T14:18:07.993Z,25.77
2023-01-30T14:20:46.668Z,22.98
2023-01-30T14:23:30.087Z,24.10
2023-01-30T14:26:03.215Z,25.50
2023-01-30T14:28:52.397Z,21.17
2023-01-30T14:31:53.931Z,20.73
2023-01-30T14:34:45.440Z,30.52
2023-01-30T14:37:47.355Z,29.50
2023-01-30T14:40:41.731Z,27.00
2023-01-30T14:43:58.985Z,24.38
2023-01-30T14:46:55.831Z,31.73
2023-01-30T14:49:33.080Z,29.52
2023-01-30T14:52:07.019Z,32.15
2023-01-30T14:54:50.893Z,26.98
2023-01-30T14:57:32.620Z,24.30
2023-01-30T15:00:18.673Z,29.17
2023-01-30T15:02:55.170Z,30.77
2023-01-30T15:05:33.968Z,35.40
2023-01-30T15:08:11.271Z,36.80
2023-01-30T15:11:02.874Z,32.97
2023-01-30T15:14:00.122Z,26.15
2023-01-30T15:16:47.344Z,34.88
2023-01-30T15:19:38.420Z,26.95
2023-01-30T15:22:24.159Z,32.20
2023-01-30T15:25:20.234Z,36.30
2023-01-30T15:28:05.455Z,34.47
2023-01-30T15:30:57.490Z,35.97
2023-01-30T15:33:32.341Z,29.77
2023-01-30T15:36:20.524Z,29.20
2023-01-30T15:39:01.513Z,25.83
2023-01-30T15:41:42.545Z,25.80
2023-01-30T15:44:45.098Z,29.10
2023-01-30T15:47:38.728Z,29.17
2023-01-30T15:50:13.440Z,24.92
2023-01-30T15:52:49.538Z,24.27
2023-01-30T15:55:27.158Z,25.92
2023-01-30T15:58:10.355Z,23.95
2023-01-30T16:00:47.575Z,30.85
2023-01-30T16:03:25.275Z,40.35
2023-01-30T16:06:00.759Z,30.55
2023-01-30T16:08:36.720Z,34.03
2023-01-30T16:11:11.991Z,28.02
2023-01-30T16:13:45.017Z,30.98
2023-01-30T16:16:20.891Z,30.07
2023-01-30T16:18:58.509Z,31.17
2023-01-30T16:21:34.273Z,27.25
2023-01-30T16:24:13.675Z,33.72
2023-01-30T16:26:52.568Z,24.95
2023-01-30T16:29:28.438Z,41.83
2023-01-30T16:32:01.926Z,34.33
2023-01-30T16:34:39.670Z,38.03
2023-01-30T16:37:30.242Z,34.13
2023-01-30T16:40:15.308Z,39.38
2023-01-30T16:42:59.030Z,31.55
2023-01-30T16:46:22.813Z,36.67
2023-01-30T16:49:05.009Z,37.63
2023-01-30T16:51:42.381Z,29.40
2023-01-30T16:54:24.494Z,26.27
2023-01-30T16:57:00.696Z,28.65
2023-01-30T16:59:35.639Z,25.90
2023-01-30T17:02:09.159Z,25.20
2023-01-30T17:04:43.279Z,28.42
2023-01-30T17:07:35.066Z,28.13
2023-01-30T17:10:47.855Z,26.08
2023-01-30T17:13:32.944Z,24.70
2023-01-30T17:16:26.821Z,25.73
2023-01-30T17:19:00.902Z,24.08
2023-01-30T17:21:43.624Z,23.63
2023-01-30T17:24:20.641Z,35.03
2023-01-30T17:26:59.018Z,23.92
2023-01-30T17:29:42.565Z,21.40
2023-01-30T17:32:17.382Z,24.38
2023-01-30T17:34:50.385Z,22.45
2023-01-30T17:37:23.603Z,29.27
2023-01-30T17:39:57.985Z,23.38
2023-01-30T17:42:30.948Z,22.70
2023-01-30T17:45:04.492Z,27.33
2023-01-30T17:47:37.695Z,29.45
2023-01-30T17:50:14.562Z,25.88
2023-01-30T17:52:47.607Z,26.23
2023-01-30T17:55:22.163Z,24.20
2023-01-30T17:57:56.511Z,20.77
2023-01-30T18:00:29.719Z,22.73
2023-01-30T18:03:02.877Z,25.67
2023-01-30T18:05:37.418Z,21.77
2023-01-30T18:08:10.456Z,17.95
2023-01-30T18:10:44.823Z,16.93
2023-01-30T18:13:17.761Z,18.85
2023-01-30T18:15:50.768Z,20.20
2023-01-30T18:18:23.779Z,19.77
2023-01-30T18:20:56.780Z,21.90
2023-01-30T18:23:29.760Z,22.13
2023-01-30T18:26:04.323Z,21.17
2023-01-30T18:28:37.319Z,18.35
2023-01-30T18:31:11.133Z,25.83
2023-01-30T18:33:45.573Z,19.27
2023-01-30T18:36:20.466Z,26.17
2023-01-30T18:38:53.958Z,23.88
2023-01-30T18:41:29.602Z,26.40
2023-01-30T18:44:04.605Z,26.75
2023-01-30T18:46:38.032Z,26.08
2023-01-30T18:49:11.340Z,33.42
2023-01-30T18:51:44.340Z,34.42
2023-01-30T18:54:17.548Z,30.37
2023-01-30T18:56:51.950Z,33.42
2023-01-30T18:59:26.427Z,30.35
2023-01-30T19:01:59.522Z,27.42
2023-01-30T19:04:32.500Z,24.60
2023-01-30T19:07:05.712Z,32.23
2023-01-30T19:09:38.895Z,21.60
2023-01-30T19:12:30.931Z,24.88
2023-01-30T19:15:04.002Z,27.00
2023-01-30T19:17:39.904Z,25.23
2023-01-30T19:20:14.596Z,23.20
2023-01-30T19:22:49.606Z,24.42
2023-01-30T19:25:23.748Z,33.70
2023-01-30T19:27:58.194Z,23.80
2023-01-30T19:30:33.897Z,24.30
2023-01-30T19:33:06.992Z,24.67
2023-01-30T19:35:42.311Z,21.38
2023-01-30T19:38:15.771Z,22.42
2023-01-30T19:40:48.919Z,27.42
2023-01-30T19:43:23.278Z,23.92
2023-01-30T19:45:59.371Z,36.63
2023-01-30T19:48:35.000Z,39.85
2023-01-30T19:51:13.533Z,35.47
2023-01-30T19:53:51.423Z,33.80
2023-01-30T19:56:25.767Z,35.75
2023-01-30T19:59:02.274Z,32.60
2023-01-30T20:01:37.651Z,32.33
2023-01-30T20:04:10.786Z,32.60
2023-01-30T20:06:46.573Z,33.10
2023-01-30T20:09:19.744Z,29.85
2023-01-30T20:12:01.323Z,32.17
2023-01-30T20:14:38.497Z,34.78
2023-01-30T20:17:14.864Z,33.83
2023-01-30T20:19:48.046Z,29.83
2023-01-30T20:22:21.136Z,30.02
2023-01-30T20:24:54.113Z,35.63
2023-01-30T20:27:29.858Z,33.73
2023-01-30T20:30:07.667Z,25.17
2023-01-30T20:32:40.925Z,23.90
2023-01-30T20:35:16.838Z,26.65
2023-01-30T20:37:49.861Z,31.17
2023-01-30T20:40:22.822Z,21.88
2023-01-30T20:42:55.823Z,21.37
2023-01-30T20:45:30.170Z,28.47
2023-01-30T20:48:03.279Z,21.27
2023-01-30T20:50:36.261Z,33.77
2023-01-30T20:53:09.236Z,26.80
2023-01-30T20:55:42.247Z,24.27
2023-01-30T20:58:15.400Z,29.40
2023-01-30T21:00:49.764Z,28.38
2023-01-30T21:03:24.599Z,21.45
2023-01-30T21:05:58.385Z,19.15
2023-01-30T21:08:32.105Z,21.80
2023-01-30T21:11:06.697Z,23.95
2023-01-30T21:13:41.585Z,28.67
2023-01-30T21:16:19.596Z,14.82
2023-01-30T21:19:00.127Z,24.20
2023-01-30T21:21:38.072Z,27.58
2023-01-30T21:24:14.974Z,24.23
2023-01-30T21:26:49.222Z,20.20
2023-01-30T21:29:24.859Z,22.58
2023-01-30T21:32:05.072Z,18.15
2023-01-30T21:34:38.228Z,29.15
2023-01-30T21:37:31.542Z,23.00
2023-01-30T21:40:22.069Z,25.63
2023-01-30T21:43:12.415Z,22.55
2023-01-30T21:45:45.568Z,20.75
2023-01-30T21:48:19.985Z,22.20
2023-01-30T21:50:56.366Z,16.48
2023-01-30T21:53:33.415Z,18.77
2023-01-30T21:56:09.875Z,18.40
2023-01-30T21:58:44.332Z,21.10
2023-01-30T22:01:17.854Z,25.15
2023-01-30T22:03:53.087Z,21.60
2023-01-30T22:06:26.215Z,20.00
2023-01-30T22:09:00.463Z,20.97
2023-01-30T22:11:37.633Z,19.40
2023-01-30T22:14:13.309Z,20.65
2023-01-30T22:16:46.504Z,25.38
2023-01-30T22:19:35.698Z,15.97
2023-01-30T22:22:09.078Z,17.80
2023-01-30T22:24:42.046Z,21.40
2023-01-30T22:27:16.408Z,18.23
2023-01-30T22:29:50.937Z,16.95
2023-01-30T22:32:23.993Z,17.25
2023-01-30T22:34:58.465Z,14.10
2023-01-30T22:37:31.449Z,16.52
2023-01-30T22:40:05.144Z,16.88
2023-01-30T22:42:41.182Z,15.20
2023-01-30T22:45:14.288Z,16.40
2023-01-30T22:47:49.499Z,16.77
2023-01-30T22:50:24.132Z,18.02
2023-01-30T22:52:58.902Z,19.05
2023-01-30T22:55:31.893Z,17.92
2023-01-30T22:58:04.827Z,15.13
2023-01-30T23:00:38.138Z,19.73
2023-01-30T23:03:13.762Z,15.02
2023-01-30T23:05:57.625Z,18.20
2023-01-30T23:08:31.941Z,15.30
2023-01-30T23:11:14.527Z,19.13
2023-01-30T23:13:50.826Z,20.92
2023-01-30T23:16:26.279Z,19.13
2023-01-30T23:19:00.133Z,17.50
2023-01-30T23:21:37.147Z,19.65
2023-01-30T23:24:13.241Z,18.85
2023-01-30T23:26:52.052Z,12.73
2023-01-30T23:29:25.365Z,19.17
2023-01-30T23:32:02.380Z,15.50
2023-01-30T23:34:46.627Z,18.67
2023-01-30T23:37:43.840Z,13.32
2023-01-30T23:40:17.061Z,14.43
2023-01-30T23:42:50.036Z,13.73
2023-01-30T23:45:23.002Z,16.83
2023-01-30T23:47:55.983Z,11.80
2023-01-30T23:50:29.067Z,14.88
2023-01-30T23:53:03.696Z,11.33
2023-01-30T23:55:36.717Z,13.10
2023-01-30T23:58:09.671Z,13.43
